createdAt,value
2022-12-03T00:00:33.912Z,38.10
2022-12-03T00:04:20.200Z,41.50
2022-12-03T00:07:47.043Z,44.40
2022-12-03T00:11:13.788Z,42.40
2022-12-03T00:14:44.627Z,45.40
2022-12-03T00:18:12.179Z,28.60
2022-12-03T00:21:39.063Z,43.30
2022-12-03T00:25:07.061Z,45.80
2022-12-03T00:28:34.161Z,42.80
2022-12-03T00:32:01.099Z,43.50
2022-12-03T00:35:27.762Z,42.60
2022-12-03T00:38:54.536Z,46.20
2022-12-03T00:42:21.946Z,45.00
2022-12-03T00:45:48.853Z,41.00
2022-12-03T00:49:15.742Z,31.50
2022-12-03T00:52:42.600Z,44.20
2022-12-03T00:56:11.024Z,35.10
2022-12-03T00:59:37.950Z,46.70
2022-12-03T01:03:06.738Z,39.10
2022-12-03T01:06:33.589Z,44.70
2022-12-03T01:10:00.440Z,49.80
2022-12-03T01:13:27.756Z,41.80
2022-12-03T01:16:54.753Z,35.30
2022-12-03T01:20:21.886Z,48.00
2022-12-03T01:23:48.752Z,43.70
2022-12-03T01:27:15.586Z,32.50
2022-12-03T01:30:56.249Z,44.40
2022-12-03T01:34:22.933Z,41.60
2022-12-03T01:37:50.095Z,44.60
2022-12-03T01:41:17.935Z,42.40
2022-12-03T01:44:45.980Z,44.20
2022-12-03T01:48:16.611Z,45.20
2022-12-03T01:51:43.911Z,43.40
2022-12-03T01:55:17.313Z,43.20
2022-12-03T01:58:45.650Z,38.80
2022-12-03T02:02:21.062Z,41.60
2022-12-03T02:05:48.427Z,31.60
2022-12-03T02:09:16.714Z,38.00
2022-12-03T02:12:48.620Z,31.10
2022-12-03T02:16:15.735Z,40.80
2022-12-03T02:19:42.722Z,37.80
2022-12-03T02:23:15.102Z,42.00
2022-12-03T02:26:41.896Z,35.90
2022-12-03T02:30:11.467Z,39.80
2022-12-03T02:33:39.710Z,33.60
2022-12-03T02:37:08.593Z,40.30
2022-12-03T02:40:36.278Z,34.10
2022-12-03T02:44:03.790Z,41.70
2022-12-03T02:47:31.951Z,39.80
2022-12-03T02:51:02.646Z,31.00
2022-12-03T02:54:29.943Z,37.90
2022-12-03T02:57:57.255Z,31.40
2022-12-03T03:01:24.453Z,40.50
2022-12-03T03:04:52.395Z,39.70
2022-12-03T03:08:20.553Z,37.50
2022-12-03T03:11:47.520Z,37.00
2022-12-03T03:15:14.848Z,40.40
2022-12-03T03:18:42.448Z,36.20
2022-12-03T03:22:10.791Z,35.10
2022-12-03T03:25:38.205Z,37.30
2022-12-03T03:29:05.118Z,38.20
2022-12-03T03:32:33.024Z,37.40
2022-12-03T03:36:02.126Z,37.30
2022-12-03T03:39:29.415Z,38.10
2022-12-03T03:42:58.171Z,36.80
2022-12-03T03:46:25.606Z,36.90
2022-12-03T03:49:53.049Z,39.30
2022-12-03T03:53:20.767Z,40.20
2022-12-03T03:56:48.209Z,34.30
2022-12-03T04:00:17.095Z,40.40
2022-12-03T04:03:44.236Z,32.70
2022-12-03T04:07:11.105Z,36.90
2022-12-03T04:10:55.606Z,37.30
2022-12-03T04:14:22.221Z,35.30
2022-12-03T04:18:09.677Z,32.20
2022-12-03T04:21:54.153Z,32.80
2022-12-03T04:25:39.000Z,34.00
2022-12-03T04:29:06.071Z,33.20
2022-12-03T04:32:50.518Z,33.20
2022-12-03T04:36:17.415Z,35.10
2022-12-03T04:39:44.744Z,33.90
2022-12-03T04:43:13.182Z,31.20
2022-12-03T04:46:40.351Z,34.70
2022-12-03T04:50:09.295Z,32.20
2022-12-03T04:53:36.463Z,32.80
2022-12-03T04:57:04.062Z,33.10
2022-12-03T05:00:31.077Z,30.70
2022-12-03T05:03:58.598Z,33.00
2022-12-03T05:07:25.390Z,32.60
2022-12-03T05:10:52.275Z,30.30
2022-12-03T05:14:19.576Z,29.90
2022-12-03T05:17:46.806Z,32.00
2022-12-03T05:21:14.224Z,34.00
2022-12-03T05:24:41.012Z,32.60
2022-12-03T05:28:08.268Z,28.80
2022-12-03T05:31:35.187Z,32.80
2022-12-03T05:35:01.902Z,34.30
2022-12-03T05:38:28.702Z,36.60
2022-12-03T05:42:13.373Z,35.20
2022-12-03T05:45:41.593Z,36.80
2022-12-03T05:49:08.356Z,32.80
2022-12-03T05:52:35.470Z,40.10
2022-12-03T05:56:02.485Z,57.90
2022-12-03T05:59:29.619Z,41.80
2022-12-03T06:02:57.268Z,40.90
2022-12-03T06:06:24.183Z,37.50
2022-12-03T06:09:50.966Z,39.70
2022-12-03T06:13:18.340Z,35.70
2022-12-03T06:16:45.244Z,36.90
2022-12-03T06:20:15.004Z,34.10
2022-12-03T06:23:44.879Z,36.20
2022-12-03T06:27:11.978Z,32.70
2022-12-03T06:30:38.729Z,32.50
2022-12-03T06:34:05.518Z,38.30
2022-12-03T06:37:32.540Z,36.80
2022-12-03T06:40:59.246Z,39.00
2022-12-03T06:44:26.292Z,35.50
2022-12-03T06:47:53.099Z,34.30
2022-12-03T06:51:19.927Z,35.60
2022-12-03T06:54:46.977Z,38.70
2022-12-03T06:58:14.717Z,35.00
2022-12-03T07:01:41.523Z,34.70
2022-12-03T07:05:09.778Z,39.40
2022-12-03T07:08:36.782Z,39.70
2022-12-03T07:12:03.476Z,35.70
2022-12-03T07:15:30.595Z,40.40
2022-12-03T07:18:57.231Z,38.90
2022-12-03T07:22:24.141Z,38.70
2022-12-03T07:25:50.939Z,35.00
2022-12-03T07:29:17.893Z,37.70
2022-12-03T07:32:44.990Z,35.50
2022-12-03T07:36:12.677Z,40.70
2022-12-03T07:39:39.563Z,35.20
2022-12-03T07:43:06.683Z,36.70
2022-12-03T07:46:33.441Z,38.50
2022-12-03T07:50:00.316Z,37.40
2022-12-03T07:53:27.164Z,37.70
2022-12-03T07:56:59.580Z,38.30
2022-12-03T08:00:28.577Z,37.10
2022-12-03T08:03:55.568Z,34.90
2022-12-03T08:07:22.732Z,36.70
2022-12-03T08:10:49.660Z,42.10
2022-12-03T08:14:19.520Z,37.50
2022-12-03T08:17:52.398Z,38.00
2022-12-03T08:21:22.700Z,38.90
2022-12-03T08:24:49.553Z,36.60
2022-12-03T08:28:19.961Z,40.20
2022-12-03T08:31:52.153Z,39.30
2022-12-03T08:35:24.873Z,40.20
2022-12-03T08:38:53.675Z,36.00
2022-12-03T08:42:41.768Z,35.60
2022-12-03T08:46:15.745Z,39.30
2022-12-03T08:49:43.358Z,37.80
2022-12-03T08:53:26.630Z,39.40
2022-12-03T08:56:53.636Z,36.50
2022-12-03T09:00:23.972Z,38.80
2022-12-03T09:03:54.482Z,33.90
2022-12-03T09:07:21.791Z,38.40
2022-12-03T09:10:48.735Z,37.40
2022-12-03T09:14:18.995Z,40.70
2022-12-03T09:17:45.848Z,37.10
2022-12-03T09:21:12.823Z,39.10
2022-12-03T09:24:39.606Z,39.10
2022-12-03T09:28:06.542Z,39.40
2022-12-03T09:31:34.520Z,41.40
2022-12-03T09:35:01.167Z,43.00
2022-12-03T09:38:27.980Z,43.70
2022-12-03T09:41:55.958Z,59.60
2022-12-03T09:45:22.815Z,50.30
2022-12-03T09:48:49.692Z,40.40
2022-12-03T09:52:22.344Z,43.90
2022-12-03T09:55:50.464Z,43.90
2022-12-03T09:59:18.395Z,42.70
2022-12-03T10:02:46.416Z,42.90
2022-12-03T10:06:17.956Z,39.20
2022-12-03T10:09:44.664Z,45.40
2022-12-03T10:13:23.892Z,47.30
2022-12-03T10:16:52.923Z,55.40
2022-12-03T10:20:22.362Z,55.90
2022-12-03T10:27:31.169Z,47.20
2022-12-03T10:30:59.366Z,48.70
2022-12-03T10:34:31.905Z,45.30
2022-12-03T10:38:04.306Z,45.60
2022-12-03T10:41:31.624Z,42.90
2022-12-03T10:45:16.499Z,44.90
2022-12-03T10:48:44.708Z,47.60
2022-12-03T10:52:26.149Z,47.20
2022-12-03T10:55:58.817Z,45.00
2022-12-03T10:59:28.538Z,48.40
2022-12-03T11:06:25.428Z,41.30
2022-12-03T11:09:55.794Z,46.00
2022-12-03T11:15:15.205Z,47.70
2022-12-03T11:19:03.342Z,53.60
2022-12-03T11:22:41.968Z,48.30
2022-12-03T11:26:08.737Z,44.40
2022-12-03T11:30:04.646Z,50.20
2022-12-03T11:33:33.303Z,32.20
2022-12-03T11:37:29.335Z,51.20
2022-12-03T11:48:44.909Z,47.20
2022-12-03T11:52:30.620Z,48.00
2022-12-03T11:56:08.423Z,49.10
2022-12-03T11:59:32.203Z,48.90
2022-12-03T12:02:57.334Z,51.10
2022-12-03T12:06:21.696Z,49.20
2022-12-03T12:09:53.600Z,51.30
2022-12-03T12:13:54.810Z,65.70
2022-12-03T12:17:32.940Z,54.90
2022-12-03T12:21:16.209Z,56.30
2022-12-03T12:24:51.167Z,57.70
2022-12-03T12:28:14.694Z,50.80
2022-12-03T12:31:38.070Z,53.70
2022-12-03T12:35:13.328Z,62.20
2022-12-03T12:38:36.739Z,56.60
2022-12-03T12:42:01.153Z,56.80
2022-12-03T12:45:27.381Z,52.30
2022-12-03T12:48:50.683Z,54.50
2022-12-03T12:52:14.656Z,59.10
2022-12-03T12:55:38.730Z,54.40
2022-12-03T12:59:12.234Z,55.70
2022-12-03T13:02:41.792Z,53.50
2022-12-03T13:06:11.005Z,61.10
2022-12-03T13:09:34.495Z,61.10
2022-12-03T13:12:57.936Z,61.60
2022-12-03T13:16:27.552Z,56.60
2022-12-03T13:19:58.334Z,58.10
2022-12-03T13:23:33.971Z,54.10
2022-12-03T13:26:58.639Z,78.10
2022-12-03T13:30:23.237Z,67.70
2022-12-03T13:33:46.820Z,60.60
2022-12-03T13:37:16.464Z,74.70
2022-12-03T13:40:40.957Z,63.50
2022-12-03T13:44:15.352Z,66.60
2022-12-03T13:47:39.750Z,57.30
2022-12-03T13:51:19.464Z,54.90
2022-12-03T13:54:43.333Z,63.70
2022-12-03T13:58:06.621Z,59.30
2022-12-03T14:01:29.901Z,55.70
2022-12-03T14:04:58.447Z,55.60
2022-12-03T14:08:23.425Z,65.20
2022-12-03T14:12:05.075Z,63.80
2022-12-03T14:15:28.578Z,82.00
2022-12-03T14:18:51.830Z,70.20
2022-12-03T14:22:15.062Z,68.70
2022-12-03T14:25:38.214Z,66.00
2022-12-03T14:29:05.852Z,66.30
2022-12-03T14:32:31.965Z,60.20
2022-12-03T14:35:55.659Z,63.60
2022-12-03T14:39:19.105Z,58.10
2022-12-03T14:42:42.401Z,61.90
2022-12-03T14:46:06.053Z,59.30
2022-12-03T14:49:29.604Z,55.00
2022-12-03T14:52:52.916Z,58.40
2022-12-03T14:56:16.134Z,63.60
2022-12-03T14:59:40.430Z,68.90
2022-12-03T15:03:03.871Z,58.10
2022-12-03T15:06:27.570Z,68.70
2022-12-03T15:09:50.768Z,72.50
2022-12-03T15:13:14.121Z,66.60
2022-12-03T15:16:37.522Z,70.80
2022-12-03T15:20:00.823Z,67.90
2022-12-03T15:23:24.221Z,62.70
2022-12-03T15:26:48.631Z,48.20
2022-12-03T15:30:12.405Z,58.80
2022-12-03T15:33:36.734Z,63.70
2022-12-03T15:37:00.148Z,62.10
2022-12-03T15:40:23.408Z,71.70
2022-12-03T15:43:46.950Z,69.60
2022-12-03T15:47:10.341Z,65.80
2022-12-03T15:50:38.586Z,62.30
2022-12-03T15:54:03.725Z,73.60
2022-12-03T15:57:27.407Z,63.10
2022-12-03T16:00:50.994Z,59.10
2022-12-03T16:04:14.413Z,68.70
2022-12-03T16:07:38.317Z,64.90
2022-12-03T16:11:02.110Z,63.90
2022-12-03T16:14:25.354Z,66.50
2022-12-03T16:17:48.707Z,60.20
2022-12-03T16:21:12.256Z,62.90
2022-12-03T16:24:35.903Z,68.40
2022-12-03T16:27:59.355Z,65.30
2022-12-03T16:31:23.818Z,66.30
2022-12-03T16:34:47.158Z,68.00
2022-12-03T16:38:11.019Z,65.70
2022-12-03T16:41:34.242Z,60.90
2022-12-03T16:45:15.905Z,69.30
2022-12-03T16:48:39.441Z,70.80
2022-12-03T16:52:03.420Z,65.80
2022-12-03T16:55:27.194Z,66.20
2022-12-03T16:58:51.221Z,79.50
2022-12-03T17:02:14.735Z,75.10
2022-12-03T17:05:39.909Z,73.30
2022-12-03T17:09:03.309Z,66.40
2022-12-03T17:12:37.492Z,66.90
2022-12-03T17:16:10.346Z,65.90
2022-12-03T17:19:33.728Z,66.50
2022-12-03T17:22:57.629Z,71.30
2022-12-03T17:26:21.002Z,71.30
2022-12-03T17:29:44.328Z,61.60
2022-12-03T17:33:07.713Z,69.70
2022-12-03T17:36:31.086Z,61.70
2022-12-03T17:39:54.685Z,73.80
2022-12-03T17:43:18.448Z,65.30
2022-12-03T17:46:41.822Z,66.00
2022-12-03T17:50:08.497Z,65.10
2022-12-03T17:53:31.798Z,69.60
2022-12-03T17:56:55.266Z,71.30
2022-12-03T18:00:19.835Z,67.20
2022-12-03T18:03:43.158Z,69.70
2022-12-03T18:07:06.597Z,73.10
2022-12-03T18:10:29.894Z,71.50
2022-12-03T18:13:53.256Z,67.00
2022-12-03T18:17:16.623Z,73.60
2022-12-03T18:20:39.949Z,66.20
2022-12-03T18:24:04.491Z,72.80
2022-12-03T18:27:28.370Z,76.10
2022-12-03T18:30:52.910Z,71.10
2022-12-03T18:34:16.513Z,69.20
2022-12-03T18:37:40.062Z,77.40
2022-12-03T18:41:03.897Z,70.50
2022-12-03T18:44:28.865Z,74.90
2022-12-03T18:47:52.554Z,75.50
2022-12-03T18:51:18.176Z,70.20
2022-12-03T18:54:41.792Z,67.90
2022-12-03T18:58:05.494Z,66.90
2022-12-03T19:01:29.060Z,70.80
2022-12-03T19:04:52.402Z,73.20
2022-12-03T19:08:15.696Z,67.80
2022-12-03T19:11:39.287Z,54.10
2022-12-03T19:15:03.264Z,69.10
2022-12-03T19:18:27.530Z,73.20
2022-12-03T19:21:50.879Z,74.70
2022-12-03T19:25:14.207Z,71.20
2022-12-03T19:28:37.654Z,78.40
2022-12-03T19:32:01.195Z,77.30
2022-12-03T19:35:24.584Z,73.60
2022-12-03T19:38:55.034Z,74.60
2022-12-03T19:42:20.180Z,66.20
2022-12-03T19:45:43.509Z,76.00
2022-12-03T19:49:07.479Z,75.70
2022-12-03T19:52:30.939Z,77.00
2022-12-03T19:55:55.881Z,81.90
2022-12-03T19:59:19.235Z,78.80
2022-12-03T20:02:42.722Z,65.80
2022-12-03T20:06:09.278Z,68.50
2022-12-03T20:09:32.944Z,78.70
2022-12-03T20:12:56.289Z,79.30
2022-12-03T20:16:20.256Z,81.60
2022-12-03T20:19:44.378Z,83.50
2022-12-03T20:23:07.617Z,81.80
2022-12-03T20:26:31.603Z,72.40
2022-12-03T20:29:55.244Z,76.60
2022-12-03T20:33:18.844Z,77.10
2022-12-03T20:36:43.595Z,69.50
2022-12-03T20:40:09.547Z,78.90
2022-12-03T20:43:33.323Z,64.40
2022-12-03T20:46:56.612Z,80.80
2022-12-03T20:50:20.125Z,62.60
2022-12-03T20:53:44.630Z,78.30
2022-12-03T20:57:07.923Z,77.50
2022-12-03T21:00:31.739Z,74.70
2022-12-03T21:03:56.405Z,65.40
2022-12-03T21:07:19.793Z,70.80
2022-12-03T21:10:46.846Z,72.30
2022-12-03T21:14:10.862Z,71.30
2022-12-03T21:17:34.281Z,71.20
2022-12-03T21:21:00.140Z,74.50
2022-12-03T21:24:23.388Z,73.50
2022-12-03T21:27:46.692Z,70.70
2022-12-03T21:31:12.201Z,75.90
2022-12-03T21:34:36.640Z,71.50
2022-12-03T21:38:00.326Z,70.80
2022-12-03T21:41:23.858Z,76.90
2022-12-03T21:44:47.087Z,70.20
2022-12-03T21:48:11.215Z,64.40
2022-12-03T21:51:35.171Z,70.90
2022-12-03T21:54:58.584Z,58.50
2022-12-03T21:58:21.857Z,65.40
2022-12-03T22:01:47.352Z,70.00
2022-12-03T22:05:11.564Z,69.30
2022-12-03T22:08:35.218Z,70.80
2022-12-03T22:12:00.239Z,68.10
2022-12-03T22:15:23.640Z,67.80
2022-12-03T22:18:47.009Z,65.60
2022-12-03T22:22:10.288Z,69.60
2022-12-03T22:25:33.849Z,65.30
2022-12-03T22:28:57.174Z,71.60
2022-12-03T22:32:20.757Z,71.10
2022-12-03T22:35:53.297Z,70.60
2022-12-03T22:39:16.689Z,71.40
2022-12-03T22:42:40.103Z,68.90
2022-12-03T22:46:04.224Z,67.70
2022-12-03T22:49:28.715Z,66.20
2022-12-03T22:52:52.120Z,63.40
2022-12-03T22:56:16.584Z,64.90
2022-12-03T22:59:39.860Z,65.10
2022-12-03T23:03:04.206Z,61.40
2022-12-03T23:06:29.536Z,64.80
2022-12-03T23:09:53.060Z,58.80
2022-12-03T23:13:18.850Z,66.90
2022-12-03T23:16:42.308Z,63.30
2022-12-03T23:20:08.721Z,62.80
2022-12-03T23:23:33.315Z,69.20
2022-12-03T23:26:57.850Z,70.40
2022-12-03T23:30:21.506Z,63.10
2022-12-03T23:33:45.716Z,59.20
2022-12-03T23:37:09.359Z,66.50
2022-12-03T23:40:33.732Z,59.80
2022-12-03T23:43:57.833Z,64.10
2022-12-03T23:47:21.498Z,60.90
2022-12-03T23:50:45.013Z,64.80
2022-12-03T23:54:08.672Z,60.10
2022-12-03T23:57:32.273Z,59.40
